createdAt,value
2023-05-13T00:00:54.242Z,94723.00
2023-05-13T00:01:54.217Z,94723.00
2023-05-13T00:02:54.322Z,94725.00
2023-05-13T00:03:54.296Z,94725.00
2023-05-13T00:04:54.278Z,94725.00
2023-05-13T00:05:54.348Z,94723.00
2023-05-13T00:06:54.329Z,94721.00
2023-05-13T00:07:54.325Z,94723.00
2023-05-13T00:08:54.334Z,94725.00
2023-05-13T00:09:54.375Z,94723.00
2023-05-13T00:10:54.377Z,94723.00
2023-05-13T00:11:54.354Z,94725.00
2023-05-13T00:12:54.398Z,94721.00
2023-05-13T00:13:54.432Z,94725.00
2023-05-13T00:14:54.372Z,94723.00
2023-05-13T00:15:54.430Z,94721.00
2023-05-13T00:16:54.388Z,94721.00
2023-05-13T00:17:54.391Z,94725.00
2023-05-13T00:18:54.393Z,94725.00
2023-05-13T00:19:54.399Z,94727.00
2023-05-13T00:20:54.403Z,94725.00
2023-05-13T00:21:54.403Z,94723.00
2023-05-13T00:22:54.634Z,94727.00
2023-05-13T00:23:54.364Z,94727.00
2023-05-13T00:24:54.400Z,94727.00
2023-05-13T00:25:54.376Z,94729.00
2023-05-13T00:26:54.363Z,94729.00
2023-05-13T00:27:54.426Z,94727.00
2023-05-13T00:28:54.379Z,94727.00
2023-05-13T00:29:54.388Z,94727.00
2023-05-13T00:30:54.367Z,94727.00
2023-05-13T00:31:54.441Z,94727.00
2023-05-13T00:32:54.408Z,94725.00
2023-05-13T00:33:54.385Z,94725.00
2023-05-13T00:34:54.383Z,94723.00
2023-05-13T00:35:54.361Z,94723.00
2023-05-13T00:36:54.364Z,94719.00
2023-05-13T00:37:54.360Z,94719.00
2023-05-13T00:38:54.375Z,94719.00
2023-05-13T00:39:54.429Z,94721.00
2023-05-13T00:40:54.387Z,94717.00
2023-05-13T00:41:54.397Z,94721.00
2023-05-13T00:42:54.643Z,94719.00
2023-05-13T00:43:54.411Z,94719.00
2023-05-13T00:44:54.381Z,94719.00
2023-05-13T00:45:54.499Z,94723.00
2023-05-13T00:46:54.391Z,94721.00
2023-05-13T00:47:54.456Z,94721.00
2023-05-13T00:48:54.406Z,94719.00
2023-05-13T00:49:54.370Z,94719.00
2023-05-13T00:50:54.400Z,94719.00
2023-05-13T00:51:54.388Z,94717.00
2023-05-13T00:52:54.432Z,94719.00
2023-05-13T00:53:54.374Z,94721.00
2023-05-13T00:54:54.387Z,94719.00
2023-05-13T00:55:54.393Z,94723.00
2023-05-13T00:56:54.396Z,94723.00
2023-05-13T00:57:54.373Z,94723.00
2023-05-13T00:58:54.358Z,94723.00
2023-05-13T00:59:54.373Z,94725.00
2023-05-13T01:00:54.443Z,94723.00
2023-05-13T01:01:54.382Z,94725.00
2023-05-13T01:02:54.512Z,94723.00
2023-05-13T01:03:54.339Z,94725.00
2023-05-13T01:04:54.366Z,94727.00
2023-05-13T01:05:54.362Z,94725.00
2023-05-13T01:06:54.333Z,94725.00
2023-05-13T01:07:54.384Z,94725.00
2023-05-13T01:08:54.306Z,94729.00
2023-05-13T01:09:54.293Z,94725.00
2023-05-13T01:10:54.286Z,94727.00
2023-05-13T01:11:54.288Z,94727.00
2023-05-13T01:12:54.302Z,94729.00
2023-05-13T01:13:54.312Z,94729.00
2023-05-13T01:14:54.266Z,94731.00
2023-05-13T01:15:54.277Z,94729.00
2023-05-13T01:16:54.338Z,94729.00
2023-05-13T01:17:54.349Z,94733.00
2023-05-13T01:18:54.306Z,94731.00
2023-05-13T01:19:54.278Z,94735.00
2023-05-13T01:20:54.284Z,94733.00
2023-05-13T01:21:54.265Z,94735.00
2023-05-13T01:22:54.264Z,94735.00
2023-05-13T01:23:54.279Z,94735.00
2023-05-13T01:24:54.253Z,94737.00
2023-05-13T01:25:54.245Z,94737.00
2023-05-13T01:26:54.228Z,94735.00
2023-05-13T01:27:54.269Z,94739.00
2023-05-13T01:28:54.243Z,94739.00
2023-05-13T01:29:54.260Z,94739.00
2023-05-13T01:30:54.228Z,94740.00
2023-05-13T01:31:54.272Z,94742.00
2023-05-13T01:32:54.291Z,94740.00
2023-05-13T01:33:54.240Z,94744.00
2023-05-13T01:34:54.253Z,94744.00
2023-05-13T01:35:54.232Z,94744.00
2023-05-13T01:36:54.238Z,94746.00
2023-05-13T01:37:54.240Z,94742.00
2023-05-13T01:38:54.224Z,94740.00
2023-05-13T01:39:54.211Z,94740.00
2023-05-13T01:40:54.176Z,94744.00
2023-05-13T01:41:54.220Z,94740.00
2023-05-13T01:42:54.213Z,94740.00
2023-05-13T01:43:54.186Z,94740.00
2023-05-13T01:44:54.184Z,94742.00
2023-05-13T01:45:54.211Z,94740.00
2023-05-13T01:46:54.237Z,94740.00
2023-05-13T01:47:54.201Z,94742.00
2023-05-13T01:48:54.171Z,94740.00
2023-05-13T01:49:54.174Z,94740.00
2023-05-13T01:50:54.148Z,94740.00
2023-05-13T01:51:54.189Z,94739.00
2023-05-13T01:52:54.170Z,94739.00
2023-05-13T01:53:54.171Z,94737.00
2023-05-13T01:54:54.199Z,94739.00
2023-05-13T01:55:54.156Z,94740.00
2023-05-13T01:56:54.171Z,94739.00
2023-05-13T01:57:54.688Z,94739.00
2023-05-13T01:58:54.169Z,94740.00
2023-05-13T01:59:54.169Z,94740.00
2023-05-13T02:00:54.163Z,94739.00
2023-05-13T02:01:54.188Z,94740.00
2023-05-13T02:02:54.255Z,94742.00
2023-05-13T02:03:54.214Z,94742.00
2023-05-13T02:04:54.159Z,94740.00
2023-05-13T02:05:54.124Z,94740.00
2023-05-13T02:06:54.166Z,94737.00
2023-05-13T02:07:54.147Z,94740.00
2023-05-13T02:08:54.100Z,94739.00
2023-05-13T02:09:54.127Z,94737.00
2023-05-13T02:10:54.138Z,94739.00
2023-05-13T02:11:54.091Z,94740.00
2023-05-13T02:12:54.106Z,94739.00
2023-05-13T02:13:54.103Z,94739.00
2023-05-13T02:14:54.122Z,94739.00
2023-05-13T02:15:54.136Z,94739.00
2023-05-13T02:16:54.186Z,94739.00
2023-05-13T02:17:54.143Z,94739.00
2023-05-13T02:18:54.224Z,94739.00
2023-05-13T02:19:54.077Z,94737.00
2023-05-13T02:20:54.113Z,94739.00
2023-05-13T02:21:54.105Z,94739.00
2023-05-13T02:22:54.063Z,94739.00
2023-05-13T02:23:54.080Z,94739.00
2023-05-13T02:24:54.085Z,94740.00
2023-05-13T02:25:54.097Z,94739.00
2023-05-13T02:26:54.073Z,94739.00
2023-05-13T02:27:54.168Z,94740.00
2023-05-13T02:28:54.104Z,94739.00
2023-05-13T02:29:54.102Z,94740.00
2023-05-13T02:30:54.086Z,94740.00
2023-05-13T02:31:54.134Z,94740.00
2023-05-13T02:32:54.222Z,94739.00
2023-05-13T02:33:54.055Z,94740.00
2023-05-13T02:34:54.075Z,94735.00
2023-05-13T02:35:54.071Z,94739.00
2023-05-13T02:36:54.029Z,94737.00
2023-05-13T02:37:54.193Z,94737.00
2023-05-13T02:38:54.050Z,94737.00
2023-05-13T02:39:54.039Z,94739.00
2023-05-13T02:40:54.072Z,94740.00
2023-05-13T02:41:54.029Z,94740.00
2023-05-13T02:42:54.195Z,94737.00
2023-05-13T02:43:54.054Z,94737.00
2023-05-13T02:44:54.016Z,94737.00
2023-05-13T02:45:54.033Z,94737.00
2023-05-13T02:46:54.052Z,94737.00
2023-05-13T02:47:54.222Z,94740.00
2023-05-13T02:48:54.033Z,94739.00
2023-05-13T02:49:54.028Z,94739.00
2023-05-13T02:50:54.023Z,94739.00
2023-05-13T02:51:54.035Z,94739.00
2023-05-13T02:52:54.203Z,94739.00
2023-05-13T02:53:54.016Z,94740.00
2023-05-13T02:54:54.054Z,94739.00
2023-05-13T02:55:53.996Z,94740.00
2023-05-13T02:56:54.010Z,94740.00
2023-05-13T02:57:54.217Z,94740.00
2023-05-13T02:58:54.017Z,94740.00
2023-05-13T02:59:54.026Z,94740.00
2023-05-13T03:00:54.052Z,94739.00
2023-05-13T03:01:54.014Z,94740.00
2023-05-13T03:02:54.071Z,94739.00
2023-05-13T03:03:54.205Z,94739.00
2023-05-13T03:04:54.005Z,94735.00
2023-05-13T03:05:54.007Z,94739.00
2023-05-13T03:06:54.012Z,94733.00
2023-05-13T03:07:53.988Z,94735.00
2023-05-13T03:08:53.999Z,94742.00
2023-05-13T03:09:54.013Z,94742.00
2023-05-13T03:10:53.959Z,94737.00
2023-05-13T03:11:53.953Z,94737.00
2023-05-13T03:12:53.990Z,94744.00
2023-05-13T03:13:53.992Z,94737.00
2023-05-13T03:14:53.968Z,94739.00
2023-05-13T03:15:53.980Z,94739.00
2023-05-13T03:16:53.948Z,94737.00
2023-05-13T03:17:53.997Z,94739.00
2023-05-13T03:18:54.013Z,94739.00
2023-05-13T03:19:53.976Z,94740.00
2023-05-13T03:20:54.549Z,94739.00
2023-05-13T03:21:53.964Z,94740.00
2023-05-13T03:22:53.993Z,94742.00
2023-05-13T03:23:53.967Z,94742.00
2023-05-13T03:24:53.934Z,94742.00
2023-05-13T03:25:53.923Z,94744.00
2023-05-13T03:26:53.956Z,94744.00
2023-05-13T03:27:53.957Z,94744.00
2023-05-13T03:28:53.959Z,94746.00
2023-05-13T03:29:53.968Z,94746.00
2023-05-13T03:30:53.979Z,94748.00
2023-05-13T03:31:53.987Z,94748.00
2023-05-13T03:32:54.027Z,94750.00
2023-05-13T03:33:53.961Z,94752.00
2023-05-13T03:34:53.920Z,94752.00
2023-05-13T03:35:53.960Z,94754.00
2023-05-13T03:36:53.906Z,94754.00
2023-05-13T03:37:53.918Z,94756.00
2023-05-13T03:38:54.111Z,94756.00
2023-05-13T03:39:53.899Z,94758.00
2023-05-13T03:40:53.894Z,94756.00
2023-05-13T03:41:53.906Z,94756.00
2023-05-13T03:42:53.925Z,94756.00
2023-05-13T03:43:53.889Z,94756.00
2023-05-13T03:44:53.904Z,94758.00
2023-05-13T03:45:53.881Z,94760.00
2023-05-13T03:46:53.958Z,94758.00
2023-05-13T03:47:53.910Z,94760.00
2023-05-13T03:48:53.905Z,94760.00
2023-05-13T03:49:53.940Z,94760.00
2023-05-13T03:50:53.881Z,94758.00
2023-05-13T03:51:53.884Z,94758.00
2023-05-13T03:52:53.843Z,94760.00
2023-05-13T03:53:53.893Z,94760.00
2023-05-13T03:54:53.879Z,94760.00
2023-05-13T03:55:53.875Z,94764.00
2023-05-13T03:56:53.865Z,94762.00
2023-05-13T03:57:53.876Z,94760.00
2023-05-13T03:58:54.238Z,94760.00
2023-05-13T03:59:53.870Z,94760.00
2023-05-13T04:00:53.871Z,94760.00
2023-05-13T04:01:53.895Z,94760.00
2023-05-13T04:02:53.922Z,94760.00
2023-05-13T04:03:53.882Z,94762.00
2023-05-13T04:04:53.896Z,94762.00
2023-05-13T04:05:53.887Z,94766.00
2023-05-13T04:06:53.913Z,94766.00
2023-05-13T04:07:53.861Z,94768.00
2023-05-13T04:08:53.833Z,94768.00
2023-05-13T04:09:53.839Z,94770.00
2023-05-13T04:10:53.845Z,94770.00
2023-05-13T04:11:53.825Z,94772.00
2023-05-13T04:12:53.821Z,94774.00
2023-05-13T04:13:53.840Z,94776.00
2023-05-13T04:14:53.811Z,94774.00
2023-05-13T04:15:53.818Z,94774.00
2023-05-13T04:16:53.839Z,94776.00
2023-05-13T04:17:53.871Z,94778.00
2023-05-13T04:18:54.266Z,94778.00
2023-05-13T04:19:53.824Z,94780.00
2023-05-13T04:20:53.805Z,94780.00
2023-05-13T04:21:53.827Z,94782.00
2023-05-13T04:22:53.788Z,94784.00
2023-05-13T04:23:53.792Z,94782.00
2023-05-13T04:24:53.797Z,94788.00
2023-05-13T04:25:53.826Z,94788.00
2023-05-13T04:26:53.821Z,94788.00
2023-05-13T04:27:53.839Z,94790.00
2023-05-13T04:28:53.800Z,94790.00
2023-05-13T04:29:53.809Z,94788.00
2023-05-13T04:30:53.810Z,94791.00
2023-05-13T04:31:53.861Z,94791.00
2023-05-13T04:32:53.857Z,94790.00
2023-05-13T04:33:53.806Z,94790.00
2023-05-13T04:34:53.827Z,94790.00
2023-05-13T04:35:53.832Z,94791.00
2023-05-13T04:36:53.790Z,94791.00
2023-05-13T04:37:53.808Z,94791.00
2023-05-13T04:38:53.768Z,94793.00
2023-05-13T04:39:53.781Z,94793.00
2023-05-13T04:40:53.782Z,94793.00
2023-05-13T04:41:53.749Z,94795.00
2023-05-13T04:42:53.784Z,94795.00
2023-05-13T04:43:53.774Z,94797.00
2023-05-13T04:44:53.786Z,94797.00
2023-05-13T04:45:53.805Z,94795.00
2023-05-13T04:46:53.769Z,94797.00
2023-05-13T04:47:55.531Z,94797.00
2023-05-13T04:48:53.729Z,94799.00
2023-05-13T04:49:53.746Z,94797.00
2023-05-13T04:50:53.728Z,94801.00
2023-05-13T04:51:53.716Z,94799.00
2023-05-13T04:52:53.723Z,94801.00
2023-05-13T04:53:53.725Z,94801.00
2023-05-13T04:54:53.669Z,94803.00
2023-05-13T04:55:53.685Z,94803.00
2023-05-13T04:56:53.687Z,94803.00
2023-05-13T04:57:53.663Z,94805.00
2023-05-13T04:58:53.673Z,94805.00
2023-05-13T04:59:53.659Z,94807.00
2023-05-13T05:00:53.637Z,94807.00
2023-05-13T05:01:53.650Z,94805.00
2023-05-13T05:02:53.730Z,94805.00
2023-05-13T05:03:53.718Z,94813.00
2023-05-13T05:04:53.615Z,94813.00
2023-05-13T05:05:53.625Z,94809.00
2023-05-13T05:06:53.593Z,94813.00
2023-05-13T05:07:53.593Z,94815.00
2023-05-13T05:08:53.746Z,94815.00
2023-05-13T05:09:53.559Z,94815.00
2023-05-13T05:10:53.585Z,94817.00
2023-05-13T05:11:53.574Z,94817.00
2023-05-13T05:12:53.553Z,94817.00
2023-05-13T05:13:53.727Z,94819.00
2023-05-13T05:14:53.551Z,94815.00
2023-05-13T05:15:53.558Z,94817.00
2023-05-13T05:16:53.571Z,94819.00
2023-05-13T05:17:53.644Z,94819.00
2023-05-13T05:18:53.865Z,94817.00
2023-05-13T05:19:53.527Z,94815.00
2023-05-13T05:20:53.522Z,94813.00
2023-05-13T05:21:53.513Z,94817.00
2023-05-13T05:22:53.492Z,94817.00
2023-05-13T05:23:53.504Z,94817.00
2023-05-13T05:24:53.479Z,94823.00
2023-05-13T05:26:00.812Z,94819.00
2023-05-13T05:26:54.492Z,94819.00
2023-05-13T05:27:53.481Z,94823.00
2023-05-13T05:28:53.769Z,94823.00
2023-05-13T05:29:53.445Z,94823.00
2023-05-13T05:30:53.455Z,94823.00
2023-05-13T05:31:53.511Z,94823.00
2023-05-13T05:32:53.484Z,94825.00
2023-05-13T05:33:53.467Z,94829.00
2023-05-13T05:34:53.421Z,94829.00
2023-05-13T05:35:53.419Z,94827.00
2023-05-13T05:36:53.380Z,94829.00
2023-05-13T05:37:53.410Z,94831.00
2023-05-13T05:38:53.380Z,94829.00
2023-05-13T05:39:53.402Z,94827.00
2023-05-13T05:40:53.405Z,94827.00
2023-05-13T05:41:53.373Z,94829.00
2023-05-13T05:42:53.351Z,94829.00
2023-05-13T05:43:53.782Z,94827.00
2023-05-13T05:44:53.348Z,94831.00
2023-05-13T05:45:53.395Z,94827.00
2023-05-13T05:46:53.320Z,94827.00
2023-05-13T05:47:53.381Z,94831.00
2023-05-13T05:48:53.778Z,94827.00
2023-05-13T05:49:53.323Z,94829.00
2023-05-13T05:50:53.334Z,94825.00
2023-05-13T05:51:53.281Z,94827.00
2023-05-13T05:52:53.291Z,94829.00
2023-05-13T05:53:53.753Z,94827.00
2023-05-13T05:54:53.291Z,94827.00
2023-05-13T05:55:53.326Z,94829.00
2023-05-13T05:56:53.253Z,94829.00
2023-05-13T05:57:53.274Z,94829.00
2023-05-13T05:58:53.257Z,94831.00
2023-05-13T05:59:53.212Z,94833.00
2023-05-13T06:00:53.217Z,94833.00
2023-05-13T06:01:53.228Z,94833.00
2023-05-13T06:02:53.271Z,94837.00
2023-05-13T06:03:54.913Z,94837.00
2023-05-13T06:04:53.286Z,94835.00
2023-05-13T06:05:53.195Z,94835.00
2023-05-13T06:06:53.258Z,94837.00
2023-05-13T06:07:53.239Z,94837.00
2023-05-13T06:08:53.263Z,94835.00
2023-05-13T06:09:53.258Z,94835.00
2023-05-13T06:10:53.244Z,94833.00
2023-05-13T06:11:53.242Z,94833.00
2023-05-13T06:12:53.248Z,94835.00
2023-05-13T06:13:53.288Z,94835.00
2023-05-13T06:14:53.231Z,94833.00
2023-05-13T06:15:53.303Z,94838.00
2023-05-13T06:16:54.954Z,94835.00
2023-05-13T06:17:53.273Z,94837.00
2023-05-13T06:18:53.266Z,94838.00
2023-05-13T06:19:53.281Z,94840.00
2023-05-13T06:20:53.286Z,94840.00
2023-05-13T06:21:53.262Z,94840.00
2023-05-13T06:22:53.287Z,94838.00
2023-05-13T06:23:53.797Z,94838.00
2023-05-13T06:24:53.279Z,94838.00
2023-05-13T06:25:53.287Z,94840.00
2023-05-13T06:26:53.302Z,94842.00
2023-05-13T06:27:53.292Z,94844.00
2023-05-13T06:28:53.800Z,94840.00
2023-05-13T06:29:53.279Z,94842.00
2023-05-13T06:30:53.342Z,94842.00
2023-05-13T06:31:53.321Z,94842.00
2023-05-13T06:33:01.023Z,94842.00
2023-05-13T06:33:54.343Z,94842.00
2023-05-13T06:34:55.709Z,94844.00
2023-05-13T06:35:53.544Z,94844.00
2023-05-13T06:36:53.510Z,94842.00
2023-05-13T06:37:53.494Z,94844.00
2023-05-13T06:38:53.578Z,94844.00
2023-05-13T06:39:53.547Z,94842.00
2023-05-13T06:40:53.520Z,94842.00
2023-05-13T06:41:53.538Z,94844.00
2023-05-13T06:42:53.536Z,94844.00
2023-05-13T06:43:53.789Z,94844.00
2023-05-13T06:44:53.549Z,94844.00
2023-05-13T06:45:53.556Z,94842.00
2023-05-13T06:46:53.578Z,94842.00
2023-05-13T06:47:53.740Z,94844.00
2023-05-13T06:48:53.814Z,94846.00
2023-05-13T06:49:53.560Z,94846.00
2023-05-13T06:50:53.592Z,94844.00
2023-05-13T06:51:53.559Z,94850.00
2023-05-13T06:52:53.606Z,94846.00
2023-05-13T06:53:53.587Z,94846.00
2023-05-13T06:54:53.820Z,94848.00
2023-05-13T06:55:53.585Z,94846.00
2023-05-13T06:56:53.589Z,94846.00
2023-05-13T06:57:53.607Z,94846.00
2023-05-13T06:58:53.654Z,94844.00
2023-05-13T06:59:53.622Z,94842.00
2023-05-13T07:00:53.676Z,94844.00
2023-05-13T07:01:53.640Z,94844.00
2023-05-13T07:02:53.651Z,94842.00
2023-05-13T07:03:53.643Z,94846.00
2023-05-13T07:04:53.653Z,94844.00
2023-05-13T07:05:53.652Z,94844.00
2023-05-13T07:06:53.664Z,94844.00
2023-05-13T07:07:53.691Z,94844.00
2023-05-13T07:08:53.718Z,94846.00
2023-05-13T07:09:53.825Z,94846.00
2023-05-13T07:10:53.797Z,94846.00
2023-05-13T07:11:53.807Z,94846.00
2023-05-13T07:12:53.801Z,94846.00
2023-05-13T07:13:53.785Z,94846.00
2023-05-13T07:14:53.813Z,94846.00
2023-05-13T07:15:53.771Z,94844.00
2023-05-13T07:16:53.815Z,94846.00
2023-05-13T07:17:53.847Z,94846.00
2023-05-13T07:18:53.831Z,94844.00
2023-05-13T07:19:53.781Z,94850.00
2023-05-13T07:20:53.741Z,94852.00
2023-05-13T07:21:53.807Z,94852.00
2023-05-13T07:22:53.763Z,94850.00
2023-05-13T07:23:53.770Z,94852.00
2023-05-13T07:24:53.742Z,94852.00
2023-05-13T07:25:53.765Z,94850.00
2023-05-13T07:26:53.731Z,94848.00
2023-05-13T07:27:53.743Z,94850.00
2023-05-13T07:28:53.750Z,94850.00
2023-05-13T07:29:53.754Z,94850.00
2023-05-13T07:30:53.819Z,94848.00
2023-05-13T07:31:53.771Z,94848.00
2023-05-13T07:32:54.101Z,94848.00
2023-05-13T07:33:53.761Z,94846.00
2023-05-13T07:34:53.808Z,94846.00
2023-05-13T07:35:53.767Z,94846.00
2023-05-13T07:36:53.766Z,94848.00
2023-05-13T07:37:53.750Z,94846.00
2023-05-13T07:38:53.728Z,94842.00
2023-05-13T07:39:53.776Z,94840.00
2023-05-13T07:40:53.737Z,94842.00
2023-05-13T07:41:53.768Z,94840.00
2023-05-13T07:42:53.796Z,94842.00
2023-05-13T07:43:53.770Z,94840.00
2023-05-13T07:44:53.764Z,94838.00
2023-05-13T07:45:53.778Z,94838.00
2023-05-13T07:46:53.886Z,94838.00
2023-05-13T07:47:53.794Z,94837.00
2023-05-13T07:48:53.750Z,94835.00
2023-05-13T07:49:53.816Z,94835.00
2023-05-13T07:50:53.731Z,94835.00
2023-05-13T07:51:53.739Z,94837.00
2023-05-13T07:52:53.748Z,94835.00
2023-05-13T07:53:53.773Z,94835.00
2023-05-13T07:54:53.728Z,94833.00
2023-05-13T07:55:53.786Z,94835.00
2023-05-13T07:56:53.799Z,94835.00
2023-05-13T07:57:53.764Z,94833.00
2023-05-13T07:58:53.793Z,94827.00
2023-05-13T07:59:53.794Z,94829.00
2023-05-13T08:00:53.755Z,94827.00
2023-05-13T08:01:53.742Z,94827.00
2023-05-13T08:02:53.797Z,94827.00
2023-05-13T08:03:53.881Z,94829.00
2023-05-13T08:04:53.775Z,94827.00
2023-05-13T08:05:53.781Z,94825.00
2023-05-13T08:06:54.332Z,94825.00
2023-05-13T08:07:53.736Z,94821.00
2023-05-13T08:08:53.738Z,94825.00
2023-05-13T08:09:53.842Z,94823.00
2023-05-13T08:10:53.745Z,94819.00
2023-05-13T08:11:53.753Z,94825.00
2023-05-13T08:12:53.758Z,94823.00
2023-05-13T08:13:53.710Z,94821.00
2023-05-13T08:14:53.844Z,94821.00
2023-05-13T08:15:53.731Z,94821.00
2023-05-13T08:16:53.738Z,94817.00
2023-05-13T08:17:53.795Z,94817.00
2023-05-13T08:18:53.740Z,94817.00
2023-05-13T08:19:53.817Z,94817.00
2023-05-13T08:20:53.714Z,94817.00
2023-05-13T08:21:53.720Z,94817.00
2023-05-13T08:22:53.734Z,94813.00
2023-05-13T08:23:53.745Z,94811.00
2023-05-13T08:24:53.834Z,94815.00
2023-05-13T08:25:53.723Z,94815.00
2023-05-13T08:26:53.761Z,94815.00
2023-05-13T08:27:53.700Z,94813.00
2023-05-13T08:28:55.053Z,94811.00
2023-05-13T08:29:53.840Z,94811.00
2023-05-13T08:30:53.782Z,94807.00
2023-05-13T08:31:53.874Z,94809.00
2023-05-13T08:32:53.764Z,94807.00
2023-05-13T08:33:53.730Z,94807.00
2023-05-13T08:34:53.731Z,94807.00
2023-05-13T08:35:53.714Z,94809.00
2023-05-13T08:36:53.714Z,94807.00
2023-05-13T08:37:53.697Z,94807.00
2023-05-13T08:38:53.738Z,94809.00
2023-05-13T08:39:53.745Z,94807.00
2023-05-13T08:40:53.724Z,94805.00
2023-05-13T08:41:53.768Z,94805.00
2023-05-13T08:42:53.789Z,94805.00
2023-05-13T08:43:53.799Z,94805.00
2023-05-13T08:44:53.852Z,94807.00
2023-05-13T08:45:53.877Z,94807.00
2023-05-13T08:46:53.888Z,94805.00
2023-05-13T08:47:54.014Z,94803.00
2023-05-13T08:48:53.907Z,94803.00
2023-05-13T08:49:54.365Z,94803.00
2023-05-13T08:50:53.972Z,94801.00
2023-05-13T08:51:53.987Z,94801.00
2023-05-13T08:52:54.021Z,94795.00
2023-05-13T08:53:54.048Z,94799.00
2023-05-13T08:54:54.051Z,94797.00
2023-05-13T08:55:54.091Z,94795.00
2023-05-13T08:56:54.089Z,94795.00
2023-05-13T08:57:54.135Z,94795.00
2023-05-13T08:58:54.184Z,94795.00
2023-05-13T08:59:54.353Z,94793.00
2023-05-13T09:00:54.283Z,94791.00
2023-05-13T09:01:54.329Z,94790.00
2023-05-13T09:02:54.365Z,94790.00
2023-05-13T09:03:54.459Z,94790.00
2023-05-13T09:04:54.541Z,94791.00
2023-05-13T09:05:54.554Z,94795.00
2023-05-13T09:06:54.608Z,94795.00
2023-05-13T09:07:54.653Z,94793.00
2023-05-13T09:08:54.703Z,94795.00
2023-05-13T09:09:54.769Z,94795.00
2023-05-13T09:10:54.838Z,94795.00
2023-05-13T09:11:54.892Z,94795.00
2023-05-13T09:12:54.981Z,94793.00
2023-05-13T09:13:55.009Z,94795.00
2023-05-13T09:14:55.317Z,94793.00
2023-05-13T09:15:55.202Z,94791.00
2023-05-13T09:16:55.204Z,94788.00
2023-05-13T09:17:55.346Z,94788.00
2023-05-13T09:18:55.419Z,94784.00
2023-05-13T09:19:55.464Z,94786.00
2023-05-13T09:20:55.435Z,94788.00
2023-05-13T09:21:55.500Z,94784.00
2023-05-13T09:22:55.577Z,94782.00
2023-05-13T09:23:55.641Z,94780.00
2023-05-13T09:24:55.704Z,94776.00
2023-05-13T09:25:55.773Z,94776.00
2023-05-13T09:26:55.854Z,94776.00
2023-05-13T09:27:55.876Z,94774.00
2023-05-13T09:28:55.990Z,94770.00
2023-05-13T09:29:56.033Z,94772.00
2023-05-13T09:30:56.214Z,94768.00
2023-05-13T09:31:56.155Z,94770.00
2023-05-13T09:32:56.262Z,94772.00
2023-05-13T09:33:56.262Z,94772.00
2023-05-13T09:34:56.339Z,94770.00
2023-05-13T09:35:56.375Z,94768.00
2023-05-13T09:36:56.444Z,94772.00
2023-05-13T09:37:56.510Z,94770.00
2023-05-13T09:38:56.551Z,94770.00
2023-05-13T09:39:56.870Z,94770.00
2023-05-13T09:40:56.730Z,94766.00
2023-05-13T09:41:56.749Z,94766.00
2023-05-13T09:42:56.815Z,94768.00
2023-05-13T09:43:56.876Z,94764.00
2023-05-13T09:44:57.361Z,94764.00
2023-05-13T09:45:56.992Z,94764.00
2023-05-13T09:46:57.082Z,94762.00
2023-05-13T09:47:57.339Z,94762.00
2023-05-13T09:48:57.289Z,94760.00
2023-05-13T09:49:57.375Z,94762.00
2023-05-13T09:50:57.278Z,94760.00
2023-05-13T09:51:57.366Z,94766.00
2023-05-13T09:52:57.380Z,94766.00
2023-05-13T09:53:57.485Z,94762.00
2023-05-13T09:54:57.840Z,94762.00
2023-05-13T09:55:57.559Z,94762.00
2023-05-13T09:56:57.614Z,94764.00
2023-05-13T09:57:57.706Z,94764.00
2023-05-13T09:58:57.765Z,94762.00
2023-05-13T09:59:57.850Z,94762.00
2023-05-13T10:00:57.868Z,94758.00
2023-05-13T10:01:57.892Z,94760.00
2023-05-13T10:02:57.989Z,94756.00
2023-05-13T10:03:58.021Z,94758.00
2023-05-13T10:04:58.349Z,94756.00
2023-05-13T10:05:58.720Z,94758.00
2023-05-13T10:06:58.174Z,94760.00
2023-05-13T10:07:58.220Z,94754.00
2023-05-13T10:08:58.323Z,94756.00
2023-05-13T10:09:58.357Z,94758.00
2023-05-13T10:10:58.379Z,94758.00
2023-05-13T10:11:58.456Z,94758.00
2023-05-13T10:12:58.481Z,94760.00
2023-05-13T10:13:58.524Z,94760.00
2023-05-13T10:14:58.611Z,94758.00
2023-05-13T10:15:58.679Z,94754.00
2023-05-13T10:16:58.805Z,94756.00
2023-05-13T10:17:58.888Z,94756.00
2023-05-13T10:18:58.878Z,94754.00
2023-05-13T10:19:58.852Z,94754.00
2023-05-13T10:20:58.895Z,94754.00
2023-05-13T10:21:58.929Z,94752.00
2023-05-13T10:22:59.023Z,94752.00
2023-05-13T10:23:59.047Z,94750.00
2023-05-13T10:24:59.080Z,94746.00
2023-05-13T10:25:59.136Z,94746.00
2023-05-13T10:26:59.200Z,94742.00
2023-05-13T10:27:59.201Z,94746.00
2023-05-13T10:28:59.253Z,94744.00
2023-05-13T10:30:01.140Z,94744.00
2023-05-13T10:30:59.270Z,94746.00
2023-05-13T10:31:59.309Z,94742.00
2023-05-13T10:32:59.309Z,94742.00
2023-05-13T10:33:59.312Z,94739.00
2023-05-13T10:34:59.403Z,94740.00
2023-05-13T10:35:59.214Z,94739.00
2023-05-13T10:36:59.223Z,94740.00
2023-05-13T10:37:59.227Z,94735.00
2023-05-13T10:38:59.196Z,94735.00
2023-05-13T10:39:59.202Z,94735.00
2023-05-13T10:40:59.220Z,94731.00
2023-05-13T10:41:59.215Z,94729.00
2023-05-13T10:42:59.205Z,94727.00
2023-05-13T10:43:59.172Z,94727.00
2023-05-13T10:44:59.196Z,94723.00
2023-05-13T10:45:59.415Z,94723.00
2023-05-13T10:46:59.157Z,94725.00
2023-05-13T10:47:59.206Z,94723.00
2023-05-13T10:48:59.189Z,94729.00
2023-05-13T10:49:59.183Z,94723.00
2023-05-13T10:50:59.152Z,94721.00
2023-05-13T10:51:59.151Z,94721.00
2023-05-13T10:52:59.155Z,94721.00
2023-05-13T10:53:59.173Z,94723.00
2023-05-13T10:54:59.148Z,94725.00
2023-05-13T10:55:59.374Z,94721.00
2023-05-13T10:56:59.211Z,94721.00
2023-05-13T10:57:59.110Z,94725.00
2023-05-13T10:58:59.120Z,94721.00
2023-05-13T10:59:59.070Z,94721.00
2023-05-13T11:00:59.091Z,94721.00
2023-05-13T11:01:59.153Z,94723.00
2023-05-13T11:02:59.144Z,94723.00
2023-05-13T11:03:59.311Z,94721.00
2023-05-13T11:04:59.129Z,94723.00
2023-05-13T11:05:59.197Z,94723.00
2023-05-13T11:06:59.249Z,94725.00
2023-05-13T11:07:59.281Z,94723.00
2023-05-13T11:08:59.320Z,94727.00
2023-05-13T11:09:59.350Z,94721.00
2023-05-13T11:10:59.866Z,94723.00
2023-05-13T11:11:59.442Z,94719.00
2023-05-13T11:12:59.498Z,94721.00
2023-05-13T11:13:59.566Z,94721.00
2023-05-13T11:14:59.626Z,94721.00
2023-05-13T11:15:59.712Z,94721.00
2023-05-13T11:16:59.693Z,94719.00
2023-05-13T11:17:59.795Z,94715.00
2023-05-13T11:18:59.799Z,94719.00
2023-05-13T11:19:59.803Z,94717.00
2023-05-13T11:20:59.888Z,94715.00
2023-05-13T11:21:59.924Z,94717.00
2023-05-13T11:22:59.975Z,94717.00
2023-05-13T11:24:00.015Z,94719.00
2023-05-13T11:25:00.155Z,94717.00
2023-05-13T11:26:00.132Z,94719.00
2023-05-13T11:27:00.196Z,94719.00
2023-05-13T11:28:00.254Z,94719.00
2023-05-13T11:29:00.330Z,94717.00
2023-05-13T11:30:00.369Z,94717.00
2023-05-13T11:31:00.400Z,94715.00
2023-05-13T11:32:01.097Z,94715.00
2023-05-13T11:33:00.556Z,94717.00
2023-05-13T11:34:00.556Z,94713.00
2023-05-13T11:35:00.598Z,94715.00
2023-05-13T11:36:00.912Z,94711.00
2023-05-13T11:37:00.706Z,94713.00
2023-05-13T11:38:00.781Z,94711.00
2023-05-13T11:39:00.834Z,94709.00
2023-05-13T11:40:00.844Z,94709.00
2023-05-13T11:41:01.422Z,94707.00
2023-05-13T11:42:00.960Z,94705.00
2023-05-13T11:43:00.994Z,94705.00
2023-05-13T11:44:01.073Z,94703.00
2023-05-13T11:45:01.101Z,94703.00